KCHK/CHK METAR and TAF weather

Enter ICAO airport designator
Station Type Date Time Source
KCHK METAR 2019/12/07 09:55 UTC NOAA

KCHK 070955Z AUTO 30003KT 10SM CLR M02/M02 A3031 RMK AO2 T10161023


Station Type Date Time Source
KCHK Decoded METAR 2019/12/07 09:55 UTC NOAA

Chickasha, Chickasha Municipal Airport, OK, United States (KCHK) 35-05-46N 097-57-58W
Dec 07, 2019 - 04:55 AM EST / 2019.12.07 0955 UTC
Wind: from the WNW (300 degrees) at 3 MPH (3 KT):0
Visibility: 10 mile(s):0
Sky conditions: clear
Temperature: 29.1 F (-1.6 C)
Dew Point: 27.9 F (-2.3 C)
Relative Humidity: 94%
Pressure (altimeter): 30.31 in. Hg (1026 hPa)
ob: KCHK 070955Z AUTO 30003KT 10SM CLR M02/M02 A3031 RMK AO2 T10161023
cycle: 10

Station Type Date Time Source
KCHK TAF UTC NOAA

Error!

Example: see airport list